Time;durP1;ratioP1;P1;durP2;ratioP2;P2;SDS_P1;SDS_P2;PMS_P1;PMS_P2;Temp;Humidity;BMP_temperature;BMP_pressure;BME280_temperature;BME280_humidity;BME280_pressure;Samples;Min_cycle;Max_cycle;Signal;HPM_P1;HPM_P2
2022/11/09 00:01:26;;;;;;;18.43;10.67;;;6.30;99.90;;;;;;5053615;28;20214;-60
2022/11/09 00:03:56;;;;;;;17.03;11.30;;;6.30;99.90;;;;;;5049662;28;20482;-60
2022/11/09 00:06:23;;;;;;;18.13;11.53;;;6.20;99.90;;;;;;5040902;28;20448;-60
2022/11/09 00:08:49;;;;;;;17.57;11.00;;;6.20;99.90;;;;;;5025315;28;20512;-60
2022/11/09 00:11:15;;;;;;;20.20;11.10;;;6.20;99.90;;;;;;5052334;28;20884;-59
2022/11/09 00:13:42;;;;;;;15.93;10.70;;;6.20;99.90;;;;;;5030423;28;20195;-60
2022/11/09 00:16:10;;;;;;;13.70;9.73;;;6.20;99.90;;;;;;5043921;28;20517;-59
2022/11/09 00:18:37;;;;;;;14.83;10.07;;;6.20;99.90;;;;;;5043230;28;20426;-60
2022/11/09 00:21:11;;;;;;;16.67;10.50;;;6.20;99.90;;;;;;5048578;28;20433;-60
2022/11/09 00:23:37;;;;;;;19.87;10.40;;;6.20;99.90;;;;;;5055275;28;20433;-60
2022/11/09 00:26:05;;;;;;;17.50;10.27;;;6.10;99.90;;;;;;5049847;28;20464;-60
2022/11/09 00:28:31;;;;;;;16.67;10.30;;;6.20;99.90;;;;;;5045657;28;20974;-60
2022/11/09 00:31:00;;;;;;;15.80;10.20;;;6.10;99.90;;;;;;5051665;28;20437;-61
2022/11/09 00:33:26;;;;;;;26.00;11.00;;;6.20;99.90;;;;;;5029733;28;20176;-59
2022/11/09 00:35:52;;;;;;;20.83;10.20;;;6.10;99.90;;;;;;5045826;28;20440;-59
2022/11/09 00:38:18;;;;;;;19.87;11.50;;;6.10;99.90;;;;;;5047559;28;20279;-59
2022/11/09 00:40:43;;;;;;;18.30;11.30;;;6.10;99.90;;;;;;5025580;28;20509;-60
2022/11/09 00:43:09;;;;;;;24.80;11.17;;;6.10;99.90;;;;;;5025431;28;20218;-60
2022/11/09 00:45:35;;;;;;;17.63;9.97;;;6.10;99.90;;;;;;5043560;28;20185;-60
2022/11/09 00:48:01;;;;;;;24.20;11.87;;;6.00;99.90;;;;;;5042756;28;20266;-60
2022/11/09 00:50:27;;;;;;;20.03;10.53;;;6.00;99.90;;;;;;5044309;28;20175;-60
2022/11/09 00:52:52;;;;;;;15.77;9.93;;;6.00;99.90;;;;;;5024686;28;20507;-60
2022/11/09 00:55:19;;;;;;;14.20;10.20;;;6.00;99.90;;;;;;5052104;28;20215;-59
2022/11/09 00:57:51;;;;;;;14.87;9.60;;;5.90;99.90;;;;;;5044265;28;20171;-60
2022/11/09 01:00:18;;;;;;;14.00;9.00;;;5.90;99.90;;;;;;5048978;28;21128;-60
2022/11/09 01:02:44;;;;;;;16.27;9.60;;;5.90;99.90;;;;;;5046265;28;20472;-60
2022/11/09 01:05:09;;;;;;;14.17;9.13;;;5.90;99.90;;;;;;5052388;28;20448;-60
2022/11/09 01:07:36;;;;;;;18.60;9.00;;;5.90;99.90;;;;;;5039426;28;20599;-60
2022/11/09 01:10:04;;;;;;;15.57;9.30;;;5.80;99.90;;;;;;5044329;28;20179;-62
2022/11/09 01:12:29;;;;;;;20.13;9.97;;;5.80;99.90;;;;;;5046571;28;20461;-60
2022/11/09 01:14:55;;;;;;;13.50;8.87;;;5.80;99.90;;;;;;5039347;28;20465;-60
2022/11/09 01:17:21;;;;;;;16.23;9.67;;;5.80;99.90;;;;;;5041632;28;20729;-60
2022/11/09 01:19:47;;;;;;;19.57;9.77;;;5.80;99.90;;;;;;5041808;28;20237;-61
2022/11/09 01:22:13;;;;;;;18.53;10.60;;;5.80;99.90;;;;;;5023931;28;20457;-60
2022/11/09 01:24:38;;;;;;;15.67;9.13;;;5.80;99.90;;;;;;5021660;28;20465;-60
2022/11/09 01:27:04;;;;;;;19.20;9.67;;;5.80;99.90;;;;;;5040513;28;20213;-58
2022/11/09 01:29:29;;;;;;;16.43;10.20;;;5.80;99.90;;;;;;5045610;28;20179;-60
2022/11/09 01:31:55;;;;;;;19.57;10.77;;;5.80;99.90;;;;;;5023778;28;20269;-60
2022/11/09 01:34:21;;;;;;;14.73;9.50;;;5.80;99.90;;;;;;5041677;28;20831;-60
2022/11/09 01:36:50;;;;;;;15.53;10.30;;;5.80;99.90;;;;;;5040927;28;20179;-60
2022/11/09 01:39:16;;;;;;;12.33;9.67;;;5.80;99.90;;;;;;5045844;28;20262;-60
2022/11/09 01:41:42;;;;;;;18.43;9.43;;;5.80;99.90;;;;;;5042965;28;20976;-61
2022/11/09 01:44:07;;;;;;;17.60;9.77;;;5.80;99.90;;;;;;5024012;28;20433;-60
2022/11/09 01:46:49;;;;;;;12.97;8.43;;;5.80;99.90;;;;;;5045666;28;20879;-61
2022/11/09 01:49:42;;;;;;;14.50;9.07;;;5.80;99.90;;;;;;5042830;28;20270;-60
2022/11/09 01:52:28;;;;;;;14.90;8.87;;;5.80;99.90;;;;;;5043302;28;20469;-60
2022/11/09 01:55:15;;;;;;;14.03;8.47;;;5.80;99.90;;;;;;5025967;28;20461;-59
2022/11/09 01:57:49;;;;;;;14.70;9.57;;;5.90;99.90;;;;;;5046047;28;20425;-60
2022/11/09 02:00:16;;;;;;;13.23;8.07;;;5.80;99.90;;;;;;5044519;28;20434;-60
2022/11/09 02:03:11;;;;;;;18.80;9.17;;;5.80;99.90;;;;;;5048589;28;20451;-59
2022/11/09 02:05:39;;;;;;;14.57;8.40;;;5.90;99.90;;;;;;5048201;28;20432;-60
2022/11/09 02:08:06;;;;;;;16.43;8.10;;;5.90;99.90;;;;;;5047050;28;20433;-60
2022/11/09 02:10:36;;;;;;;12.37;7.73;;;5.90;99.90;;;;;;5043449;28;20433;-60
2022/11/09 02:13:02;;;;;;;12.47;7.53;;;5.90;99.90;;;;;;5049123;28;21097;-60
2022/11/09 02:15:29;;;;;;;18.27;8.50;;;5.90;99.90;;;;;;5053449;28;20518;-60
2022/11/09 02:17:56;;;;;;;12.90;8.00;;;5.90;99.90;;;;;;5050812;28;20504;-60
2022/11/09 02:20:22;;;;;;;15.73;9.07;;;6.00;99.90;;;;;;5047357;28;20433;-60
2022/11/09 02:22:48;;;;;;;12.50;8.47;;;6.00;99.90;;;;;;5030132;28;20453;-60
2022/11/09 02:25:15;;;;;;;11.13;7.70;;;6.00;99.90;;;;;;5049699;28;20482;-60
2022/11/09 02:27:42;;;;;;;13.10;7.90;;;6.00;99.90;;;;;;5051462;28;20755;-60
2022/11/09 02:30:08;;;;;;;13.87;8.30;;;6.00;99.90;;;;;;5051867;28;20523;-61
2022/11/09 02:32:34;;;;;;;14.53;7.83;;;6.00;99.90;;;;;;5030684;28;20461;-60
2022/11/09 02:35:00;;;;;;;16.47;9.03;;;6.10;99.90;;;;;;5028040;28;20461;-60
2022/11/09 02:37:30;;;;;;;11.80;8.03;;;6.10;99.90;;;;;;5026909;28;20429;-60
2022/11/09 02:39:58;;;;;;;13.80;9.03;;;6.10;99.90;;;;;;5047430;28;20198;-60
2022/11/09 02:42:23;;;;;;;14.83;9.87;;;6.10;99.90;;;;;;5059722;28;20468;-60
2022/11/09 02:44:55;;;;;;;14.87;8.57;;;6.10;99.90;;;;;;5044694;28;20873;-60
2022/11/09 02:47:21;;;;;;;20.57;9.53;;;6.20;99.90;;;;;;5040585;28;20194;-59
2022/11/09 02:49:46;;;;;;;14.27;7.97;;;6.20;99.90;;;;;;5040492;28;20429;-59
2022/11/09 02:52:12;;;;;;;17.50;7.83;;;6.20;99.90;;;;;;5039180;28;20237;-60
2022/11/09 02:54:38;;;;;;;12.00;7.33;;;6.20;99.90;;;;;;5042794;28;20206;-60
2022/11/09 02:57:04;;;;;;;16.03;8.17;;;6.20;99.90;;;;;;5041086;28;20646;-60
2022/11/09 02:59:29;;;;;;;12.10;8.10;;;6.20;99.90;;;;;;5024226;28;20588;-60
2022/11/09 03:01:55;;;;;;;13.70;7.20;;;6.20;99.90;;;;;;5057775;28;20484;-60
2022/11/09 03:04:20;;;;;;;19.00;7.60;;;6.30;99.90;;;;;;5052934;28;20552;-60
2022/11/09 03:06:46;;;;;;;12.60;7.50;;;6.30;99.90;;;;;;5048303;28;20175;-60
2022/11/09 03:09:12;;;;;;;15.63;8.47;;;6.30;99.90;;;;;;5056346;28;20235;-60
2022/11/09 03:11:41;;;;;;;14.10;8.17;;;6.30;99.90;;;;;;5048493;28;20219;-60
2022/11/09 03:14:10;;;;;;;14.60;8.47;;;6.40;99.90;;;;;;5042650;28;20477;-60
2022/11/09 03:16:37;;;;;;;13.40;8.87;;;6.40;99.90;;;;;;5041023;28;20479;-59
2022/11/09 03:19:03;;;;;;;14.83;8.33;;;6.40;99.90;;;;;;5042457;28;20813;-60
2022/11/09 03:21:29;;;;;;;15.67;8.10;;;6.40;99.90;;;;;;5043284;28;20567;-59
2022/11/09 03:23:54;;;;;;;13.00;7.07;;;6.40;99.90;;;;;;5042392;28;20171;-59
2022/11/09 03:26:21;;;;;;;12.43;7.87;;;6.40;99.90;;;;;;5047313;28;20171;-60
2022/11/09 03:28:47;;;;;;;19.73;7.73;;;6.40;99.90;;;;;;5099949;22;20217;-56
2022/11/09 03:31:13;;;;;;;14.50;8.50;;;6.40;99.90;;;;;;5085808;28;20439;-60
2022/11/09 03:33:39;;;;;;;13.87;8.13;;;6.40;99.90;;;;;;5081805;28;20223;-56
2022/11/09 03:36:05;;;;;;;14.60;7.83;;;6.40;99.90;;;;;;5076308;28;20443;-58
2022/11/09 03:38:31;;;;;;;17.47;8.80;;;6.40;99.90;;;;;;5067854;28;20201;-57
2022/11/09 03:40:59;;;;;;;16.20;9.17;;;6.40;99.90;;;;;;5063013;28;20413;-56
2022/11/09 03:43:24;;;;;;;16.00;8.90;;;6.40;99.90;;;;;;5059235;28;20236;-55
2022/11/09 03:45:50;;;;;;;16.47;8.60;;;6.40;99.90;;;;;;5059448;28;20573;-54
2022/11/09 03:48:17;;;;;;;13.20;8.30;;;6.40;99.90;;;;;;5061731;28;20190;-56
2022/11/09 03:50:42;;;;;;;14.30;8.03;;;6.40;99.90;;;;;;5059918;28;20261;-58
2022/11/09 03:53:09;;;;;;;14.90;8.50;;;6.40;99.90;;;;;;5058369;28;20433;-54
2022/11/09 03:55:35;;;;;;;18.10;9.00;;;6.40;99.90;;;;;;5060323;28;20679;-58
2022/11/09 03:58:02;;;;;;;18.20;8.93;;;6.50;99.90;;;;;;5062900;28;20865;-55
2022/11/09 04:00:28;;;;;;;13.43;8.40;;;6.50;99.90;;;;;;5064444;28;20437;-54
2022/11/09 04:02:53;;;;;;;15.00;8.60;;;6.50;99.90;;;;;;5063477;28;20429;-55
2022/11/09 04:05:20;;;;;;;14.90;9.17;;;6.50;99.90;;;;;;5059472;28;20721;-57
2022/11/09 04:07:56;;;;;;;10.73;7.47;;;6.50;99.90;;;;;;5058282;28;20580;-58
2022/11/09 04:10:23;;;;;;;12.90;8.03;;;6.50;99.90;;;;;;5064428;28;20778;-59
2022/11/09 04:12:49;;;;;;;14.60;9.00;;;6.60;99.90;;;;;;5063469;28;20511;-54
2022/11/09 04:15:15;;;;;;;17.47;8.37;;;6.60;99.90;;;;;;5060019;28;20575;-58
2022/11/09 04:17:43;;;;;;;14.13;8.10;;;6.60;99.90;;;;;;5067278;28;20281;-53
2022/11/09 04:20:09;;;;;;;18.23;11.33;;;6.60;99.90;;;;;;5063189;28;20463;-55
2022/11/09 04:22:35;;;;;;;12.87;7.80;;;6.60;99.90;;;;;;5059978;28;20876;-54
2022/11/09 04:25:01;;;;;;;17.57;9.20;;;6.60;99.90;;;;;;5059267;28;20512;-56
2022/11/09 04:27:28;;;;;;;12.60;8.77;;;6.60;99.90;;;;;;5060469;28;20190;-56
2022/11/09 04:29:54;;;;;;;12.53;8.30;;;6.70;99.90;;;;;;5060562;28;20531;-55
2022/11/09 04:32:20;;;;;;;18.43;10.90;;;6.70;99.90;;;;;;5061719;28;21017;-56
2022/11/09 04:34:45;;;;;;;15.93;12.00;;;6.70;99.90;;;;;;5046522;28;20206;-60
2022/11/09 04:37:11;;;;;;;19.77;10.50;;;6.70;99.90;;;;;;5063560;28;20640;-55
2022/11/09 04:39:37;;;;;;;13.63;8.43;;;6.70;99.90;;;;;;5065775;28;20178;-57
2022/11/09 04:42:03;;;;;;;13.30;8.20;;;6.70;99.90;;;;;;5060768;28;20174;-60
2022/11/09 04:44:28;;;;;;;15.70;8.57;;;6.70;99.90;;;;;;5055826;28;20187;-59
2022/11/09 04:46:54;;;;;;;15.53;8.10;;;6.70;99.90;;;;;;5060330;28;20432;-54
2022/11/09 04:49:20;;;;;;;17.13;8.30;;;6.70;99.90;;;;;;5038660;28;20198;-59
2022/11/09 04:51:46;;;;;;;13.50;8.07;;;6.70;99.90;;;;;;5057875;28;20958;-54
2022/11/09 04:54:12;;;;;;;14.33;7.97;;;6.70;99.90;;;;;;5056246;28;20195;-54
2022/11/09 04:56:37;;;;;;;13.60;7.83;;;6.70;99.90;;;;;;5054405;28;20179;-59
2022/11/09 04:59:03;;;;;;;17.23;8.83;;;6.70;99.90;;;;;;5059592;28;20448;-60
2022/11/09 05:01:28;;;;;;;14.00;7.80;;;6.70;99.90;;;;;;5059271;28;20213;-54
2022/11/09 05:03:54;;;;;;;13.97;8.03;;;6.70;99.90;;;;;;5058591;28;20210;-56
2022/11/09 05:06:32;;;;;;;17.03;8.43;;;6.70;99.90;;;;;;5060826;28;20257;-57
2022/11/09 05:09:07;;;;;;;15.97;8.67;;;6.60;99.90;;;;;;5037897;28;20881;-59
2022/11/09 05:11:34;;;;;;;12.33;7.33;;;6.60;99.90;;;;;;5050624;28;20432;-57
2022/11/09 05:14:00;;;;;;;9.60;7.60;;;6.70;99.90;;;;;;5053493;28;20456;-57
2022/11/09 05:16:27;;;;;;;20.83;8.87;;;6.70;99.90;;;;;;5056334;28;20883;-61
2022/11/09 05:18:54;;;;;;;12.37;7.90;;;6.70;99.90;;;;;;5054163;28;20198;-57
2022/11/09 05:21:20;;;;;;;14.97;9.53;;;6.80;99.90;;;;;;5053238;28;20429;-59
2022/11/09 05:23:58;;;;;;;14.10;9.00;;;6.80;99.90;;;;;;5053270;28;20728;-59
2022/11/09 05:26:29;;;;;;;13.77;8.60;;;6.80;99.90;;;;;;5049186;28;20557;-56
2022/11/09 05:28:56;;;;;;;15.43;9.70;;;6.80;99.90;;;;;;5053841;28;20491;-56
2022/11/09 05:31:22;;;;;;;13.30;9.00;;;6.80;99.90;;;;;;5052430;28;20795;-58
2022/11/09 05:33:50;;;;;;;13.30;8.90;;;6.80;99.90;;;;;;5055070;28;20464;-57
2022/11/09 05:36:16;;;;;;;17.40;8.87;;;6.80;99.90;;;;;;5055192;28;20434;-56
2022/11/09 05:38:42;;;;;;;17.47;10.00;;;6.80;99.90;;;;;;5056380;28;20456;-56
2022/11/09 05:41:07;;;;;;;12.20;8.30;;;6.80;99.90;;;;;;5051481;28;20514;-56
2022/11/09 05:43:33;;;;;;;12.50;7.40;;;6.80;99.90;;;;;;5056315;28;20194;-56
2022/11/09 05:45:58;;;;;;;14.07;8.23;;;6.70;99.90;;;;;;5047227;28;20349;-56
2022/11/09 05:48:24;;;;;;;13.63;8.00;;;6.70;99.90;;;;;;5047966;28;20206;-54
2022/11/09 05:50:50;;;;;;;16.50;9.43;;;6.70;99.90;;;;;;5053709;28;20277;-58
2022/11/09 05:53:16;;;;;;;12.17;8.53;;;6.70;99.90;;;;;;5049164;28;20179;-58
2022/11/09 05:55:41;;;;;;;13.37;8.97;;;6.70;99.90;;;;;;5049516;28;20195;-55
2022/11/09 05:58:07;;;;;;;14.83;9.07;;;6.60;99.90;;;;;;5055937;28;20207;-56
2022/11/09 06:00:33;;;;;;;11.53;8.27;;;6.70;99.90;;;;;;5054291;28;20175;-58
2022/11/09 06:03:08;;;;;;;16.37;8.57;;;6.70;99.90;;;;;;5052955;28;20421;-56
2022/11/09 06:05:35;;;;;;;13.00;7.90;;;6.70;99.90;;;;;;5058192;28;20566;-58
2022/11/09 06:08:11;;;;;;;11.97;8.40;;;6.70;99.90;;;;;;5055261;28;20555;-53
2022/11/09 06:10:37;;;;;;;14.10;8.10;;;6.70;99.90;;;;;;5054378;28;20424;-60
2022/11/09 06:13:03;;;;;;;13.30;8.77;;;6.70;99.90;;;;;;5057001;28;20433;-55
2022/11/09 06:15:29;;;;;;;15.17;8.17;;;6.70;99.90;;;;;;5057998;28;20464;-56
2022/11/09 06:17:56;;;;;;;17.10;7.80;;;6.80;99.90;;;;;;5059170;28;20198;-57
2022/11/09 06:20:23;;;;;;;12.80;7.23;;;6.80;99.90;;;;;;5059258;28;20444;-58
2022/11/09 06:22:57;;;;;;;13.07;7.60;;;6.80;99.90;;;;;;5043282;28;20432;-55
2022/11/09 06:25:23;;;;;;;14.03;6.87;;;6.80;99.90;;;;;;5060823;28;20511;-55
2022/11/09 06:27:49;;;;;;;20.67;7.50;;;6.80;99.90;;;;;;5058989;28;20507;-58
2022/11/09 06:30:15;;;;;;;17.00;7.60;;;6.80;99.90;;;;;;5061696;28;20436;-58
2022/11/09 06:32:41;;;;;;;12.30;7.40;;;6.80;99.90;;;;;;5066448;28;20999;-60
2022/11/09 06:35:07;;;;;;;13.87;7.17;;;6.90;99.90;;;;;;5065051;28;20202;-56
2022/11/09 06:37:33;;;;;;;10.80;7.13;;;6.90;99.90;;;;;;5068711;28;20239;-55
2022/11/09 06:39:58;;;;;;;17.30;9.17;;;6.90;99.90;;;;;;5053106;28;20413;-57
2022/11/09 06:42:24;;;;;;;15.00;8.57;;;6.90;99.90;;;;;;5068837;28;20269;-58
2022/11/09 06:44:50;;;;;;;12.87;8.43;;;6.90;99.90;;;;;;5064702;28;20225;-57
2022/11/09 06:47:15;;;;;;;16.00;8.53;;;6.90;99.90;;;;;;5056186;28;20203;-55
2022/11/09 06:49:41;;;;;;;14.57;8.40;;;6.90;99.90;;;;;;5067089;28;20182;-59
2022/11/09 06:52:07;;;;;;;11.73;6.77;;;6.90;99.90;;;;;;5062477;28;20186;-56
2022/11/09 06:54:33;;;;;;;10.20;7.20;;;7.00;99.90;;;;;;5062157;28;20335;-55
2022/11/09 06:56:59;;;;;;;11.13;7.00;;;7.00;99.90;;;;;;5060801;28;20220;-55
2022/11/09 06:59:24;;;;;;;13.17;8.93;;;7.00;99.90;;;;;;5061817;28;20866;-57
2022/11/09 07:01:50;;;;;;;15.00;9.10;;;7.00;99.90;;;;;;5066385;28;20209;-54
2022/11/09 07:04:16;;;;;;;16.33;8.37;;;7.00;99.90;;;;;;5065129;28;20265;-54
2022/11/09 07:06:42;;;;;;;14.30;7.77;;;7.00;99.90;;;;;;5063727;28;20186;-55
2022/11/09 07:09:09;;;;;;;14.77;8.00;;;7.10;99.90;;;;;;5065367;28;20202;-57
2022/11/09 07:11:35;;;;;;;17.17;9.40;;;7.10;99.90;;;;;;5071078;28;20417;-58
2022/11/09 07:14:01;;;;;;;18.17;10.23;;;7.10;99.90;;;;;;5063942;28;20464;-59
2022/11/09 07:16:28;;;;;;;27.40;14.20;;;7.10;99.90;;;;;;5062254;28;20751;-59
2022/11/09 07:18:53;;;;;;;21.57;11.90;;;7.10;99.90;;;;;;5063438;28;20913;-56
2022/11/09 07:21:19;;;;;;;24.30;13.60;;;7.10;99.90;;;;;;5060421;28;20429;-58
2022/11/09 07:23:47;;;;;;;20.20;10.90;;;7.20;99.90;;;;;;5061714;28;20182;-56
2022/11/09 07:26:13;;;;;;;17.47;9.90;;;7.20;99.90;;;;;;5059975;28;20202;-55
2022/11/09 07:28:39;;;;;;;16.10;8.90;;;7.20;99.90;;;;;;5059221;28;20521;-58
2022/11/09 07:31:05;;;;;;;14.10;8.60;;;7.20;99.90;;;;;;5060387;28;20917;-57
2022/11/09 07:33:32;;;;;;;18.37;9.03;;;7.20;99.90;;;;;;5064627;28;20315;-56
2022/11/09 07:36:00;;;;;;;15.07;8.93;;;7.30;99.90;;;;;;5059738;28;20283;-55
2022/11/09 07:38:29;;;;;;;15.33;8.17;;;7.30;99.90;;;;;;5054102;28;20456;-60
2022/11/09 07:41:01;;;;;;;13.67;8.80;;;7.30;99.90;;;;;;5061818;28;22109;-57
2022/11/09 07:43:28;;;;;;;15.53;8.47;;;7.30;99.90;;;;;;5058878;28;20436;-56
2022/11/09 07:45:54;;;;;;;20.60;9.83;;;7.30;99.90;;;;;;5058550;28;20432;-56
2022/11/09 07:48:19;;;;;;;19.63;10.07;;;7.30;99.90;;;;;;5062938;28;20517;-55
2022/11/09 07:50:45;;;;;;;15.47;8.50;;;7.40;99.90;;;;;;5059672;28;20299;-56
2022/11/09 07:53:13;;;;;;;15.60;9.40;;;7.40;99.90;;;;;;5060424;28;20557;-56
2022/11/09 07:55:39;;;;;;;13.90;8.80;;;7.40;99.90;;;;;;5060398;28;20221;-59
2022/11/09 07:58:11;;;;;;;17.80;8.77;;;7.40;99.90;;;;;;5058598;28;20460;-58
2022/11/09 08:00:38;;;;;;;14.70;9.13;;;7.50;99.90;;;;;;5061615;28;20436;-56
2022/11/09 08:03:04;;;;;;;13.23;9.40;;;7.50;99.90;;;;;;5061562;28;20428;-57
2022/11/09 08:05:31;;;;;;;15.80;9.30;;;7.50;99.90;;;;;;5059294;28;20432;-58
2022/11/09 08:07:58;;;;;;;21.00;9.07;;;7.60;99.90;;;;;;5058277;28;20834;-56
2022/11/09 08:10:26;;;;;;;18.23;10.07;;;7.60;99.90;;;;;;5059635;28;20424;-60
2022/11/09 08:12:57;;;;;;;14.27;8.87;;;7.70;99.90;;;;;;5059589;28;20451;-56
2022/11/09 08:15:23;;;;;;;14.23;8.97;;;7.70;99.90;;;;;;5056580;28;20587;-57
2022/11/09 08:17:49;;;;;;;16.63;9.13;;;7.80;99.90;;;;;;5060250;28;20432;-57
2022/11/09 08:20:16;;;;;;;11.87;8.33;;;7.90;99.90;;;;;;5063291;28;20536;-56
2022/11/09 08:22:42;;;;;;;12.57;7.80;;;7.90;99.90;;;;;;5061917;28;20432;-57
2022/11/09 08:25:09;;;;;;;13.20;7.30;;;8.00;99.90;;;;;;5058887;28;20851;-57
2022/11/09 08:27:38;;;;;;;14.70;7.27;;;8.20;99.90;;;;;;5061154;28;20992;-57
2022/11/09 08:30:07;;;;;;;16.90;7.33;;;8.40;99.90;;;;;;5051527;28;20533;-56
2022/11/09 08:32:33;;;;;;;18.67;8.73;;;8.50;99.90;;;;;;5062884;28;21063;-56
2022/11/09 08:34:59;;;;;;;18.27;8.27;;;8.70;99.90;;;;;;5057717;28;20510;-55
2022/11/09 08:37:24;;;;;;;20.97;9.13;;;8.80;99.90;;;;;;5061134;28;20448;-57
2022/11/09 08:39:50;;;;;;;13.00;8.23;;;8.90;99.90;;;;;;5062496;28;20705;-55
2022/11/09 08:42:15;;;;;;;13.10;7.73;;;9.00;99.90;;;;;;5062016;28;20508;-56
2022/11/09 08:44:41;;;;;;;15.10;7.70;;;9.10;99.90;;;;;;5062364;28;20210;-56
2022/11/09 08:47:07;;;;;;;16.93;7.53;;;9.20;99.90;;;;;;5067164;28;20192;-57
2022/11/09 08:49:33;;;;;;;14.03;8.50;;;9.30;99.90;;;;;;5045381;28;20219;-57
2022/11/09 08:52:00;;;;;;;12.47;6.87;;;9.30;99.90;;;;;;5056887;28;20174;-61
2022/11/09 08:54:25;;;;;;;7.90;6.47;;;9.40;99.90;;;;;;5062415;28;20460;-56
2022/11/09 08:56:54;;;;;;;13.03;6.50;;;9.40;99.90;;;;;;5059435;28;20542;-60
2022/11/09 08:59:20;;;;;;;10.87;6.80;;;9.50;99.90;;;;;;5059267;28;20198;-58
2022/11/09 09:01:46;;;;;;;11.70;5.90;;;9.50;99.90;;;;;;5057613;28;20505;-57
2022/11/09 09:04:12;;;;;;;15.20;7.10;;;9.60;99.90;;;;;;5057101;28;20841;-57
2022/11/09 09:06:38;;;;;;;11.20;6.93;;;9.70;99.90;;;;;;5063842;28;20214;-58
2022/11/09 09:09:03;;;;;;;10.40;6.50;;;9.70;99.90;;;;;;5064634;28;20204;-57
2022/11/09 09:11:29;;;;;;;8.70;6.13;;;9.80;99.90;;;;;;5058538;28;20728;-57
2022/11/09 09:13:55;;;;;;;8.03;6.27;;;9.80;99.90;;;;;;5060136;28;20255;-57
2022/11/09 09:16:20;;;;;;;8.20;6.13;;;9.90;99.90;;;;;;5061744;28;20799;-60
2022/11/09 09:18:47;;;;;;;11.80;7.30;;;9.90;99.90;;;;;;5059201;28;20198;-57
2022/11/09 09:21:13;;;;;;;18.80;10.20;;;10.00;99.90;;;;;;5057301;28;20225;-58
2022/11/09 09:23:39;;;;;;;17.53;10.33;;;10.10;99.90;;;;;;5059836;28;20433;-57
2022/11/09 09:26:05;;;;;;;9.40;6.30;;;10.20;99.90;;;;;;5057004;28;20947;-60
2022/11/09 09:28:32;;;;;;;8.50;5.60;;;10.20;99.90;;;;;;5062806;28;20213;-57
2022/11/09 09:30:59;;;;;;;10.03;5.50;;;10.30;99.90;;;;;;5061323;28;20452;-58
2022/11/09 09:33:25;;;;;;;8.50;5.27;;;10.30;99.90;;;;;;5060267;28;20482;-58
2022/11/09 09:35:50;;;;;;;7.80;5.03;;;10.30;99.90;;;;;;5055731;28;20502;-59
2022/11/09 09:38:17;;;;;;;9.07;4.40;;;10.40;99.90;;;;;;5060734;28;20822;-56
2022/11/09 09:40:53;;;;;;;10.63;5.00;;;10.40;99.90;;;;;;5056077;28;20178;-58
2022/11/09 09:43:40;;;;;;;9.20;5.80;;;10.40;99.90;;;;;;5057859;28;20954;-55
2022/11/09 09:46:17;;;;;;;8.43;5.90;;;10.40;99.90;;;;;;5093934;22;20999;-60
2022/11/09 09:48:49;;;;;;;6.00;4.60;;;10.50;99.90;;;;;;5112407;28;21158;-60
2022/11/09 09:51:26;;;;;;;13.67;5.57;;;10.50;99.90;;;;;;5110929;28;20448;-59
2022/11/09 09:54:10;;;;;;;7.00;5.40;;;10.50;99.90;;;;;;5122925;28;20470;-60
2022/11/09 09:56:40;;;;;;;10.33;5.60;;;10.50;99.90;;;;;;5109266;28;20533;-60
2022/11/09 09:59:29;;;;;;;8.87;5.40;;;10.50;99.90;;;;;;5102934;28;20419;-60
2022/11/09 10:01:57;;;;;;;6.60;4.13;;;10.50;99.90;;;;;;5090196;28;20432;-59
2022/11/09 10:04:36;;;;;;;10.73;5.23;;;10.50;99.90;;;;;;5097054;28;20412;-59
2022/11/09 10:07:21;;;;;;;5.53;4.03;;;10.50;99.90;;;;;;5111324;27;20442;-60
2022/11/09 10:10:15;;;;;;;6.17;4.00;;;10.50;99.90;;;;;;5094482;28;20514;-59
2022/11/09 10:13:03;;;;;;;6.97;4.30;;;10.50;99.90;;;;;;5110184;27;20419;-59
2022/11/09 10:15:28;;;;;;;7.90;4.87;;;10.50;99.90;;;;;;5111290;27;20890;-60
2022/11/09 10:17:57;;;;;;;4.60;3.97;;;10.50;99.90;;;;;;5105424;27;20878;-61
2022/11/09 10:20:53;;;;;;;5.40;4.17;;;10.60;99.90;;;;;;5108511;28;20178;-60
2022/11/09 10:23:40;;;;;;;10.53;6.30;;;10.50;99.90;;;;;;5102617;27;20479;-60
2022/11/09 10:26:21;;;;;;;7.90;5.90;;;10.50;99.90;;;;;;5109514;27;20450;-61
2022/11/09 10:28:54;;;;;;;7.93;5.20;;;10.60;99.90;;;;;;5100999;27;20426;-60
2022/11/09 10:31:22;;;;;;;5.57;4.03;;;10.60;99.90;;;;;;5112903;28;20394;-60
2022/11/09 10:33:54;;;;;;;10.00;3.90;;;10.60;99.90;;;;;;5110942;27;20419;-61
2022/11/09 10:36:29;;;;;;;4.83;3.77;;;10.60;99.90;;;;;;5105682;27;20457;-60
2022/11/09 10:38:59;;;;;;;6.60;4.17;;;10.60;99.90;;;;;;5112605;27;21110;-61
2022/11/09 10:41:38;;;;;;;4.23;3.83;;;10.60;99.90;;;;;;5091868;28;20415;-61
2022/11/09 10:44:04;;;;;;;4.93;3.77;;;10.70;99.90;;;;;;5099524;27;20411;-60
2022/11/09 10:46:30;;;;;;;7.13;3.43;;;10.70;99.90;;;;;;5106976;27;20816;-61
2022/11/09 10:48:56;;;;;;;4.33;3.57;;;10.70;99.90;;;;;;5112030;27;20181;-60
2022/11/09 10:51:41;;;;;;;4.73;3.70;;;10.70;99.90;;;;;;5101242;28;20181;-60
2022/11/09 10:54:20;;;;;;;6.40;3.87;;;10.70;99.90;;;;;;5107239;28;20196;-60
2022/11/09 10:56:49;;;;;;;8.23;3.53;;;10.70;99.90;;;;;;5108065;27;20465;-62
2022/11/09 10:59:44;;;;;;;4.40;3.57;;;10.70;99.90;;;;;;5082351;28;20455;-61
2022/11/09 11:02:25;;;;;;;5.00;3.47;;;10.70;99.90;;;;;;5104147;28;20518;-61
2022/11/09 11:05:13;;;;;;;4.40;3.23;;;10.70;99.90;;;;;;5102514;28;20456;-62
2022/11/09 11:07:39;;;;;;;3.60;2.90;;;10.80;99.90;;;;;;5085572;28;20432;-61
2022/11/09 11:10:15;;;;;;;6.80;3.70;;;10.80;99.90;;;;;;5104674;27;20465;-62
2022/11/09 11:12:41;;;;;;;4.73;3.33;;;10.80;99.90;;;;;;5102277;27;20181;-62
2022/11/09 11:15:35;;;;;;;5.20;3.30;;;10.80;99.90;;;;;;5106551;28;20596;-62
2022/11/09 11:18:03;;;;;;;5.63;3.87;;;10.90;99.90;;;;;;5078630;28;20431;-62
2022/11/09 11:20:32;;;;;;;4.53;3.43;;;10.90;99.90;;;;;;5109878;28;20418;-62
2022/11/09 11:23:17;;;;;;;3.47;3.17;;;11.00;99.90;;;;;;5103955;28;20492;-61
2022/11/09 11:25:52;;;;;;;3.57;2.83;;;11.10;99.90;;;;;;5107840;28;20447;-62
2022/11/09 11:28:23;;;;;;;9.47;3.43;;;11.20;99.90;;;;;;5105070;28;20403;-61
2022/11/09 11:30:50;;;;;;;3.23;2.80;;;11.30;99.90;;;;;;5097889;28;20419;-61
2022/11/09 11:33:17;;;;;;;4.40;2.80;;;11.40;99.90;;;;;;5110832;28;20438;-60
2022/11/09 11:35:48;;;;;;;3.77;3.17;;;11.50;99.90;;;;;;5099285;28;20471;-61
2022/11/09 11:38:36;;;;;;;3.30;2.30;;;11.50;99.90;;;;;;5101592;28;20832;-61
2022/11/09 11:41:46;;;;;;;6.40;2.80;;;11.50;99.90;;;;;;5105821;28;20770;-62
2022/11/09 11:44:27;;;;;;;3.80;3.20;;;11.50;99.90;;;;;;5099165;28;20407;-63
2022/11/09 11:47:14;;;;;;;4.20;2.80;;;11.40;99.90;;;;;;5107890;28;20478;-61
2022/11/09 11:49:53;;;;;;;2.40;2.20;;;11.40;99.90;;;;;;5107056;28;20990;-62
2022/11/09 11:52:41;;;;;;;3.97;2.23;;;11.40;99.90;;;;;;5103792;28;20422;-61
2022/11/09 11:55:25;;;;;;;4.40;2.80;;;11.40;99.90;;;;;;5106216;28;20826;-61
2022/11/09 11:58:05;;;;;;;4.93;2.67;;;11.40;99.90;;;;;;5107363;28;20465;-62
2022/11/09 12:00:40;;;;;;;5.30;2.00;;;11.40;99.90;;;;;;5109363;28;20429;-61
2022/11/09 12:03:30;;;;;;;2.40;2.20;;;11.40;99.90;;;;;;5105877;28;20406;-62
2022/11/09 12:06:02;;;;;;;5.83;2.20;;;11.40;99.90;;;;;;5103106;28;21037;-62
2022/11/09 12:08:39;;;;;;;3.03;2.10;;;11.40;99.90;;;;;;5098974;28;20443;-62
2022/11/09 12:11:10;;;;;;;2.60;2.20;;;11.40;99.90;;;;;;5102131;28;20448;-62
2022/11/09 12:14:10;;;;;;;9.80;2.70;;;11.40;99.90;;;;;;5102913;28;20442;-62
2022/11/09 12:16:47;;;;;;;2.93;2.60;;;11.40;99.90;;;;;;5073534;28;20615;-62
2022/11/09 12:19:36;;;;;;;7.10;3.03;;;11.40;99.90;;;;;;5103323;28;20422;-61
2022/11/09 12:22:19;;;;;;;4.30;3.20;;;11.40;99.90;;;;;;5102568;28;20448;-62
2022/11/09 12:24:53;;;;;;;3.70;2.53;;;11.40;99.90;;;;;;5101378;28;20419;-61
2022/11/09 12:27:38;;;;;;;3.87;2.97;;;11.40;99.90;;;;;;5085493;28;20439;-61
2022/11/09 12:30:23;;;;;;;3.43;2.37;;;11.40;99.90;;;;;;5105435;28;21036;-62
2022/11/09 12:32:54;;;;;;;3.87;2.67;;;11.30;99.90;;;;;;5103232;28;20423;-61
2022/11/09 12:35:29;;;;;;;4.07;2.93;;;11.40;99.90;;;;;;5089523;28;20453;-61
2022/11/09 12:38:20;;;;;;;3.07;2.33;;;11.40;99.90;;;;;;5103669;28;20441;-61
2022/11/09 12:41:05;;;;;;;4.80;3.47;;;11.40;99.90;;;;;;5095841;28;20777;-61
2022/11/09 12:43:38;;;;;;;5.07;3.00;;;11.40;99.90;;;;;;5106568;28;20871;-61
2022/11/09 12:46:05;;;;;;;8.40;3.53;;;11.40;99.90;;;;;;5100022;28;20904;-61
2022/11/09 12:48:34;;;;;;;4.87;3.33;;;11.40;99.90;;;;;;5109784;28;20434;-61
2022/11/09 12:51:02;;;;;;;4.57;3.27;;;11.40;99.90;;;;;;5109585;28;20419;-61
2022/11/09 12:53:32;;;;;;;3.60;2.80;;;11.40;99.90;;;;;;5083791;28;20427;-61
2022/11/09 12:56:19;;;;;;;4.03;2.87;;;11.40;99.90;;;;;;5108158;28;20473;-61
2022/11/09 12:58:44;;;;;;;4.10;2.60;;;11.40;99.90;;;;;;5102932;28;20446;-61